Time;durP1;ratioP1;P1;durP2;ratioP2;P2;SDS_P1;SDS_P2;PMS_P1;PMS_P2;Temp;Humidity;BMP_temperature;BMP_pressure;BME280_temperature;BME280_humidity;BME280_pressure;Samples;Min_cycle;Max_cycle;Signal;HPM_P1;HPM_P2
2022/07/29 00:01:14;;;;;;;;;;;17.10;99.90;;;;;;4989925;28;20390;-64
2022/07/29 00:03:46;;;;;;;;;;;17.10;99.90;;;;;;4997913;28;19926;-64
2022/07/29 00:06:14;;;;;;;;;;;17.20;99.90;;;;;;5025857;28;19932;-65
2022/07/29 00:08:42;;;;;;;;;;;17.20;99.90;;;;;;5010658;28;20367;-65
2022/07/29 00:11:09;;;;;;;;;;;17.20;99.90;;;;;;5005325;28;19926;-65
2022/07/29 00:13:37;;;;;;;;;;;17.10;99.90;;;;;;5009923;28;19936;-66
2022/07/29 00:16:04;;;;;;;;;;;17.10;99.90;;;;;;5005692;28;19933;-65
2022/07/29 00:18:32;;;;;;;;;;;17.10;99.90;;;;;;5010013;28;19925;-64
2022/07/29 00:20:59;;;;;;;;;;;17.10;99.90;;;;;;5010494;28;19936;-65
2022/07/29 00:23:27;;;;;;;;;;;17.10;99.90;;;;;;5024095;28;20003;-64
2022/07/29 00:25:56;;;;;;;;;;;17.10;99.90;;;;;;5008679;28;19925;-65
2022/07/29 00:28:23;;;;;;;;;;;17.10;99.90;;;;;;5009975;28;19933;-64
2022/07/29 00:30:50;;;;;;;;;;;17.00;99.90;;;;;;5025614;28;19929;-64
2022/07/29 00:33:18;;;;;;;;;;;17.00;99.90;;;;;;5009695;28;19925;-64
2022/07/29 00:35:47;;;;;;;;;;;17.00;99.90;;;;;;5010327;28;19926;-63
2022/07/29 00:38:16;;;;;;;;;;;17.00;99.90;;;;;;4999630;28;19926;-64
2022/07/29 00:40:44;;;;;;;;;;;16.90;99.90;;;;;;4990572;28;19926;-64
2022/07/29 00:43:12;;;;;;;;;;;17.00;99.90;;;;;;5003582;28;19926;-64
2022/07/29 00:45:43;;;;;;;;;;;16.90;99.90;;;;;;5009506;28;19930;-65
2022/07/29 00:48:11;;;;;;;;;;;16.90;99.90;;;;;;5008199;28;20308;-65
2022/07/29 00:50:38;;;;;;;;;;;16.90;99.90;;;;;;5010377;28;19932;-65
2022/07/29 00:53:06;;;;;;;;;;;16.90;99.90;;;;;;5009796;28;19933;-65
2022/07/29 00:55:34;;;;;;;;;;;16.80;99.90;;;;;;5027819;28;20455;-65
2022/07/29 00:58:02;;;;;;;;;;;16.80;99.90;;;;;;5012263;28;20332;-64
2022/07/29 01:00:30;;;;;;;;;;;16.80;99.90;;;;;;5009365;28;19925;-64
2022/07/29 01:02:57;;;;;;;;;;;16.70;99.90;;;;;;5001044;28;19933;-64
2022/07/29 01:05:26;;;;;;;;;;;16.70;99.90;;;;;;5004728;28;19932;-66
2022/07/29 01:08:15;;;;;;;;;;;16.70;99.90;;;;;;5008912;28;19940;-64
2022/07/29 01:10:43;;;;;;;;;;;16.70;99.90;;;;;;5008811;28;19935;-63
2022/07/29 01:13:11;;;;;;;;;;;16.70;99.90;;;;;;5004291;28;19926;-63
2022/07/29 01:15:49;;;;;;;;;;;16.70;99.90;;;;;;5009025;28;19926;-64
2022/07/29 01:18:20;;;;;;;;;;;16.60;99.90;;;;;;5009342;28;19925;-63
2022/07/29 01:20:48;;;;;;;;;;;16.60;99.90;;;;;;5009343;28;19932;-63
2022/07/29 01:23:39;;;;;;;;;;;16.60;99.90;;;;;;5009103;28;20296;-63
2022/07/29 01:26:19;;;;;;;;;;;16.60;99.90;;;;;;4980918;28;19930;-64
2022/07/29 01:29:00;;;;;;;;;;;16.60;99.90;;;;;;5009171;28;20361;-63
2022/07/29 01:31:47;;;;;;;;;;;16.60;99.90;;;;;;5009185;28;19925;-63
2022/07/29 01:34:30;;;;;;;;;;;16.60;99.90;;;;;;5012185;28;20384;-64
2022/07/29 01:37:06;;;;;;;;;;;16.60;99.90;;;;;;5010402;28;19926;-64
2022/07/29 01:39:34;;;;;;;;;;;16.60;99.90;;;;;;5026543;28;20139;-64
2022/07/29 01:42:05;;;;;;;;;;;16.60;99.90;;;;;;5011780;28;19965;-63
2022/07/29 01:44:35;;;;;;;;;;;16.60;99.90;;;;;;5024022;28;20274;-64
2022/07/29 01:47:07;;;;;;;;;;;16.50;99.90;;;;;;5007032;28;19937;-64
2022/07/29 01:49:36;;;;;;;;;;;16.50;99.90;;;;;;5012419;28;19929;-64
2022/07/29 01:52:05;;;;;;;;;;;16.50;99.90;;;;;;5012200;28;19925;-64
2022/07/29 01:54:45;;;;;;;;;;;16.50;99.90;;;;;;5012170;28;19933;-64
2022/07/29 01:57:14;;;;;;;;;;;16.50;99.90;;;;;;5028143;28;19925;-64
2022/07/29 01:59:42;;;;;;;;;;;16.40;99.90;;;;;;5046603;28;19932;-64
2022/07/29 02:02:11;;;;;;;;;;;16.40;99.90;;;;;;5031856;28;20385;-66
2022/07/29 02:04:42;;;;;;;;;;;16.40;99.90;;;;;;5030981;28;20301;-64
2022/07/29 02:07:12;;;;;;;;;;;16.40;99.90;;;;;;5008990;28;19925;-65
2022/07/29 02:09:41;;;;;;;;;;;16.30;99.90;;;;;;5012000;28;20419;-63
2022/07/29 02:12:09;;;;;;;;;;;16.30;99.90;;;;;;5027112;28;19926;-63
2022/07/29 02:14:43;;;;;;;;;;;16.30;99.90;;;;;;5011953;28;19925;-64
2022/07/29 02:17:11;;;;;;;;;;;16.30;99.90;;;;;;5008519;28;19937;-64
2022/07/29 02:19:40;;;;;;;;;;;16.30;99.90;;;;;;5027005;28;20040;-65
2022/07/29 02:22:09;;;;;;;;;;;16.30;99.90;;;;;;5012077;28;19932;-64
2022/07/29 02:24:37;;;;;;;;;;;16.30;99.90;;;;;;5010832;28;19932;-64
2022/07/29 02:27:04;;;;;;;;;;;16.20;99.90;;;;;;5011796;28;19933;-64
2022/07/29 02:29:32;;;;;;;;;;;16.30;99.90;;;;;;5011964;28;19932;-63
2022/07/29 02:32:00;;;;;;;;;;;16.30;99.90;;;;;;5026997;28;20293;-63
2022/07/29 02:34:28;;;;;;;;;;;16.20;99.90;;;;;;5011851;28;19925;-63
2022/07/29 02:36:55;;;;;;;;;;;16.20;99.90;;;;;;5011816;28;19926;-63
2022/07/29 02:39:24;;;;;;;;;;;16.20;99.90;;;;;;4994375;28;19926;-63
2022/07/29 02:41:54;;;;;;;;;;;16.20;99.90;;;;;;5011791;28;19929;-64
2022/07/29 02:44:24;;;;;;;;;;;16.20;99.90;;;;;;5005030;28;19925;-64
2022/07/29 02:46:51;;;;;;;;;;;16.10;99.90;;;;;;5010352;28;19929;-64
2022/07/29 02:49:28;;;;;;;;;;;16.10;99.90;;;;;;5010521;28;19925;-63
2022/07/29 02:51:58;;;;;;;;;;;16.10;99.90;;;;;;5011707;28;19926;-65
2022/07/29 02:54:28;;;;;;;;;;;16.10;99.90;;;;;;5011938;28;19933;-64
2022/07/29 02:56:57;;;;;;;;;;;16.00;99.90;;;;;;5025192;28;19960;-65
2022/07/29 02:59:26;;;;;;;;;;;16.00;99.90;;;;;;5031355;28;20391;-65
2022/07/29 03:01:55;;;;;;;;;;;16.10;99.90;;;;;;5033560;28;19925;-65
2022/07/29 03:04:24;;;;;;;;;;;16.00;99.90;;;;;;5035029;28;19941;-64
2022/07/29 03:06:52;;;;;;;;;;;16.00;99.90;;;;;;5033591;28;19929;-64
2022/07/29 03:09:20;;;;;;;;;;;16.00;99.90;;;;;;5034820;28;19933;-65
2022/07/29 03:11:48;;;;;;;;;;;16.00;99.90;;;;;;5050157;28;19932;-66
2022/07/29 03:14:18;;;;;;;;;;;16.00;99.90;;;;;;5038324;28;20488;-64
2022/07/29 03:16:48;;;;;;;;;;;15.90;99.90;;;;;;4995344;28;19933;-65
2022/07/29 03:19:16;;;;;;;;;;;15.90;99.90;;;;;;4995251;28;20370;-65
2022/07/29 03:21:43;;;;;;;;;;;15.90;99.90;;;;;;4995250;28;19926;-65
2022/07/29 03:24:24;;;;;;;;;;;15.90;99.90;;;;;;4995734;28;19941;-65
2022/07/29 03:26:51;;;;;;;;;;;15.90;99.90;;;;;;4994119;28;20415;-64
2022/07/29 03:29:19;;;;;;;;;;;15.90;99.90;;;;;;4995292;28;19933;-64
2022/07/29 03:31:46;;;;;;;;;;;15.90;99.90;;;;;;4994869;28;19933;-64
2022/07/29 03:34:14;;;;;;;;;;;15.80;99.90;;;;;;4993859;28;20270;-64
2022/07/29 03:36:42;;;;;;;;;;;15.80;99.90;;;;;;4994968;28;19933;-65
2022/07/29 03:39:11;;;;;;;;;;;15.70;99.90;;;;;;4994803;28;19933;-65
2022/07/29 03:41:41;;;;;;;;;;;15.70;99.90;;;;;;5007758;28;20373;-65
2022/07/29 03:44:09;;;;;;;;;;;15.70;99.90;;;;;;5014505;28;19925;-64
2022/07/29 03:46:38;;;;;;;;;;;15.70;99.90;;;;;;5014265;28;19925;-65
2022/07/29 03:49:08;;;;;;;;;;;15.60;99.90;;;;;;5014229;28;19925;-65
2022/07/29 03:51:35;;;;;;;;;;;15.60;99.90;;;;;;5014312;28;19926;-64
2022/07/29 03:54:04;;;;;;;;;;;15.50;99.90;;;;;;5014034;28;19925;-65
2022/07/29 03:56:46;;;;;;;;;;;15.40;99.90;;;;;;5025152;28;19933;-65
2022/07/29 03:59:14;;;;;;;;;;;15.40;99.90;;;;;;5033948;28;19925;-65
2022/07/29 04:01:42;;;;;;;;;;;15.30;99.90;;;;;;5033732;28;19944;-63
2022/07/29 04:04:10;;;;;;;;;;;15.30;99.90;;;;;;5033778;28;19932;-63
2022/07/29 04:06:57;;;;;;;;;;;15.20;99.90;;;;;;5033893;28;19940;-64
2022/07/29 04:09:25;;;;;;;;;;;15.20;99.90;;;;;;5033253;28;19925;-65
2022/07/29 04:11:52;;;;;;;;;;;15.20;99.90;;;;;;5033044;28;19932;-65
2022/07/29 04:14:33;;;;;;;;;;;15.20;99.90;;;;;;5019037;28;19926;-64
2022/07/29 04:17:01;;;;;;;;;;;15.10;99.90;;;;;;4979251;28;19933;-64
2022/07/29 04:19:29;;;;;;;;;;;15.10;99.90;;;;;;4992911;28;19932;-65
2022/07/29 04:21:57;;;;;;;;;;;15.00;99.90;;;;;;4995201;28;19925;-65
2022/07/29 04:24:25;;;;;;;;;;;15.00;99.90;;;;;;4993968;28;20270;-64
2022/07/29 04:26:52;;;;;;;;;;;15.00;99.90;;;;;;4992948;28;19930;-63
2022/07/29 04:29:20;;;;;;;;;;;15.00;99.90;;;;;;4992641;28;20002;-64
2022/07/29 04:31:49;;;;;;;;;;;15.00;99.90;;;;;;4992830;28;19926;-65
2022/07/29 04:34:16;;;;;;;;;;;15.00;99.90;;;;;;4993794;28;20408;-64
2022/07/29 04:36:45;;;;;;;;;;;15.00;99.90;;;;;;4993977;28;20435;-65
2022/07/29 04:39:12;;;;;;;;;;;15.00;99.90;;;;;;4993850;28;19925;-64
2022/07/29 04:41:45;;;;;;;;;;;15.00;99.90;;;;;;4993761;28;19933;-65
2022/07/29 04:44:13;;;;;;;;;;;14.90;99.90;;;;;;5001113;28;19925;-65
2022/07/29 04:46:41;;;;;;;;;;;15.00;99.90;;;;;;5011919;28;19925;-65
2022/07/29 04:49:08;;;;;;;;;;;15.00;99.90;;;;;;5006349;28;19925;-65
2022/07/29 04:51:36;;;;;;;;;;;15.00;99.90;;;;;;5010068;28;19925;-65
2022/07/29 04:54:04;;;;;;;;;;;15.00;99.90;;;;;;5008970;28;19926;-64
2022/07/29 04:56:31;;;;;;;;;;;15.00;99.90;;;;;;5017365;28;19953;-64
2022/07/29 04:58:59;;;;;;;;;;;15.00;99.90;;;;;;5008595;28;20277;-64
2022/07/29 05:01:26;;;;;;;;;;;15.00;99.90;;;;;;5009404;28;20400;-65
2022/07/29 05:03:54;;;;;;;;;;;15.00;99.90;;;;;;5002052;28;20012;-64
2022/07/29 05:06:26;;;;;;;;;;;15.00;99.90;;;;;;5006662;28;20293;-64
2022/07/29 05:08:54;;;;;;;;;;;15.00;99.90;;;;;;5006169;28;19925;-65
2022/07/29 05:11:21;;;;;;;;;;;15.00;99.90;;;;;;5007174;28;20293;-64
2022/07/29 05:13:56;;;;;;;;;;;15.00;99.90;;;;;;5011004;28;19925;-67
2022/07/29 05:16:23;;;;;;;;;;;15.00;99.90;;;;;;5009461;28;19932;-66
2022/07/29 05:18:51;;;;;;;;;;;15.00;99.90;;;;;;5015092;28;19925;-64
2022/07/29 05:21:19;;;;;;;;;;;14.90;99.90;;;;;;5009453;28;19929;-65
2022/07/29 05:23:46;;;;;;;;;;;14.90;99.90;;;;;;5006995;28;19926;-64
2022/07/29 05:26:13;;;;;;;;;;;14.90;99.90;;;;;;4988590;28;19926;-65
2022/07/29 05:28:41;;;;;;;;;;;14.90;99.90;;;;;;5003340;28;19933;-64
2022/07/29 05:31:09;;;;;;;;;;;14.90;99.90;;;;;;5010121;28;19945;-64
2022/07/29 05:33:36;;;;;;;;;;;14.80;99.90;;;;;;5008364;28;19925;-65
2022/07/29 05:36:06;;;;;;;;;;;14.80;99.90;;;;;;5009328;28;20539;-65
2022/07/29 05:38:35;;;;;;;;;;;14.80;99.90;;;;;;5024317;28;19929;-64
2022/07/29 05:41:03;;;;;;;;;;;14.80;99.90;;;;;;5009376;28;19925;-64
2022/07/29 05:43:31;;;;;;;;;;;14.80;99.90;;;;;;5007687;28;19929;-64
2022/07/29 05:45:58;;;;;;;;;;;14.80;99.90;;;;;;5008924;28;19926;-65
2022/07/29 05:48:26;;;;;;;;;;;14.80;99.90;;;;;;5003436;28;19925;-66
2022/07/29 05:50:54;;;;;;;;;;;14.90;99.90;;;;;;5009472;28;19925;-65
2022/07/29 05:53:22;;;;;;;;;;;14.80;99.90;;;;;;5007504;28;19930;-65
2022/07/29 05:55:50;;;;;;;;;;;14.90;99.90;;;;;;5012261;28;19925;-66
2022/07/29 05:58:17;;;;;;;;;;;14.90;99.90;;;;;;5007694;28;20389;-64
2022/07/29 06:00:45;;;;;;;;;;;14.90;99.90;;;;;;4988970;28;20400;-64
2022/07/29 06:03:12;;;;;;;;;;;15.00;99.90;;;;;;4990685;28;19937;-64
2022/07/29 06:05:40;;;;;;;;;;;15.00;99.90;;;;;;5005691;28;20472;-65
2022/07/29 06:08:07;;;;;;;;;;;15.00;99.90;;;;;;5008700;28;19925;-65
2022/07/29 06:10:35;;;;;;;;;;;15.00;99.90;;;;;;5008750;28;19936;-64
2022/07/29 06:13:02;;;;;;;;;;;15.00;99.90;;;;;;5016215;28;19936;-63
2022/07/29 06:15:30;;;;;;;;;;;14.90;99.90;;;;;;5020369;28;19926;-64
2022/07/29 06:17:57;;;;;;;;;;;15.00;99.90;;;;;;4996491;28;19932;-65
2022/07/29 06:20:29;;;;;;;;;;;14.90;99.90;;;;;;4988732;28;19933;-65
2022/07/29 06:22:57;;;;;;;;;;;15.00;99.90;;;;;;4992183;28;19926;-65
2022/07/29 06:25:25;;;;;;;;;;;14.90;99.90;;;;;;5024199;28;19944;-64
2022/07/29 06:27:52;;;;;;;;;;;14.90;99.90;;;;;;5033888;28;20459;-64
2022/07/29 06:30:20;;;;;;;;;;;15.00;99.90;;;;;;5023538;28;19926;-63
2022/07/29 06:32:47;;;;;;;;;;;15.00;99.90;;;;;;5019906;28;20635;-63
2022/07/29 06:35:15;;;;;;;;;;;15.00;99.90;;;;;;4986567;28;19930;-64
2022/07/29 06:38:02;;;;;;;;;;;15.00;99.90;;;;;;5000946;28;19930;-64
2022/07/29 06:41:02;;;;;;;;;;;15.00;99.90;;;;;;5011870;28;19933;-63
2022/07/29 06:43:37;;;;;;;;;;;15.00;99.90;;;;;;5010862;28;19925;-64
2022/07/29 06:46:18;;;;;;;;;;;15.10;99.90;;;;;;5011158;28;20377;-63
2022/07/29 06:48:49;;;;;;;;;;;15.10;99.90;;;;;;5011783;28;19930;-63
2022/07/29 06:51:16;;;;;;;;;;;15.20;99.90;;;;;;5012452;28;19936;-62
2022/07/29 06:53:50;;;;;;;;;;;15.20;99.90;;;;;;5012112;28;19932;-65
2022/07/29 06:56:31;;;;;;;;;;;15.30;99.90;;;;;;5020705;28;19944;-64
2022/07/29 06:59:06;;;;;;;;;;;15.30;99.90;;;;;;4994972;28;19926;-66
2022/07/29 07:01:35;;;;;;;;;;;15.40;99.90;;;;;;4989201;28;19934;-64
2022/07/29 07:04:02;;;;;;;;;;;15.50;99.90;;;;;;4988189;28;19933;-63
2022/07/29 07:06:30;;;;;;;;;;;15.50;99.90;;;;;;4988236;28;19926;-65
2022/07/29 07:08:57;;;;;;;;;;;15.50;99.90;;;;;;5007789;28;19925;-64
2022/07/29 07:11:25;;;;;;;;;;;15.60;99.90;;;;;;5011709;28;20408;-65
2022/07/29 07:13:53;;;;;;;;;;;15.60;99.90;;;;;;5011680;28;20296;-64
2022/07/29 07:16:25;;;;;;;;;;;15.60;99.90;;;;;;5011378;28;19933;-66
2022/07/29 07:18:53;;;;;;;;;;;15.70;99.90;;;;;;5009888;28;20404;-65
2022/07/29 07:21:21;;;;;;;;;;;15.60;99.90;;;;;;5010541;28;19932;-64
2022/07/29 07:23:48;;;;;;;;;;;15.60;99.90;;;;;;5008042;28;19949;-64
2022/07/29 07:26:16;;;;;;;;;;;15.60;99.90;;;;;;5010446;28;19925;-65
2022/07/29 07:28:43;;;;;;;;;;;15.70;99.90;;;;;;5011595;28;19930;-64
2022/07/29 07:31:11;;;;;;;;;;;15.70;99.90;;;;;;5010044;28;19932;-64
2022/07/29 07:33:39;;;;;;;;;;;15.70;99.90;;;;;;5006831;28;19926;-65
2022/07/29 07:36:06;;;;;;;;;;;15.70;99.90;;;;;;5012241;28;19925;-65
2022/07/29 07:38:34;;;;;;;;;;;15.80;99.90;;;;;;5017991;28;19932;-65
2022/07/29 07:41:01;;;;;;;;;;;15.80;99.90;;;;;;5013421;28;20452;-65
2022/07/29 07:43:29;;;;;;;;;;;15.90;99.90;;;;;;5001398;28;19926;-65
2022/07/29 07:45:57;;;;;;;;;;;16.00;99.90;;;;;;4990132;28;20297;-65
2022/07/29 07:48:24;;;;;;;;;;;16.00;99.90;;;;;;4990741;28;20377;-65
2022/07/29 07:50:52;;;;;;;;;;;16.10;99.90;;;;;;5018192;28;20322;-65
2022/07/29 07:53:19;;;;;;;;;;;16.20;99.90;;;;;;5013311;28;19932;-65
2022/07/29 07:55:47;;;;;;;;;;;16.30;99.90;;;;;;4991759;28;20321;-65
2022/07/29 07:58:35;;;;;;;;;;;16.30;99.90;;;;;;5003618;28;19929;-64
2022/07/29 08:01:02;;;;;;;;;;;16.30;99.90;;;;;;5011124;28;19930;-64
2022/07/29 08:03:30;;;;;;;;;;;16.30;99.90;;;;;;5009496;28;19925;-65
2022/07/29 08:05:57;;;;;;;;;;;16.30;99.90;;;;;;4974534;28;19926;-65
2022/07/29 08:08:25;;;;;;;;;;;16.30;99.90;;;;;;5002604;28;19925;-66
2022/07/29 08:10:52;;;;;;;;;;;16.30;99.90;;;;;;5010654;28;19936;-64
2022/07/29 08:13:20;;;;;;;;;;;16.30;99.90;;;;;;5009329;28;19939;-65
2022/07/29 08:15:57;;;;;;;;;;;16.40;99.90;;;;;;5010939;28;19925;-64
2022/07/29 08:18:26;;;;;;;;;;;16.40;99.90;;;;;;5010651;28;19929;-65
2022/07/29 08:20:53;;;;;;;;;;;16.40;99.90;;;;;;5006140;28;19925;-65
2022/07/29 08:23:22;;;;;;;;;;;16.50;99.90;;;;;;5008729;28;19926;-65
2022/07/29 08:25:51;;;;;;;;;;;16.60;99.90;;;;;;5010454;28;19936;-65
2022/07/29 08:28:21;;;;;;;;;;;16.60;99.90;;;;;;5004493;28;19926;-65
2022/07/29 08:30:52;;;;;;;;;;;16.70;99.90;;;;;;4990983;28;19926;-65
2022/07/29 08:33:19;;;;;;;;;;;16.80;99.90;;;;;;4998707;28;19926;-65
2022/07/29 08:35:47;;;;;;;;;;;16.80;99.90;;;;;;5008424;28;20253;-64
2022/07/29 08:38:15;;;;;;;;;;;16.90;99.90;;;;;;5010329;28;19929;-65
2022/07/29 08:40:42;;;;;;;;;;;16.90;99.90;;;;;;5010348;28;19925;-66
2022/07/29 08:43:10;;;;;;;;;;;17.00;99.90;;;;;;5005782;28;20315;-65
2022/07/29 08:45:47;;;;;;;;;;;17.10;99.90;;;;;;4973188;28;19926;-66
2022/07/29 08:48:16;;;;;;;;;;;17.20;99.90;;;;;;4998353;28;19933;-65
2022/07/29 08:50:44;;;;;;;;;;;17.30;99.90;;;;;;4995269;28;19952;-65
2022/07/29 08:53:14;;;;;;;;;;;17.40;99.90;;;;;;5001551;28;19925;-65
2022/07/29 08:55:48;;;;;;;;;;;17.50;99.90;;;;;;5009077;28;19925;-64
2022/07/29 08:58:16;;;;;;;;;;;17.60;99.90;;;;;;5009167;28;20304;-63
2022/07/29 09:00:49;;;;;;;;;;;17.70;99.90;;;;;;5009875;28;19940;-64
2022/07/29 09:03:19;;;;;;;;;;;17.80;99.90;;;;;;5009350;28;19932;-64
2022/07/29 09:05:46;;;;;;;;;;;17.90;99.90;;;;;;4995468;28;20505;-63
2022/07/29 09:08:15;;;;;;;;;;;18.00;99.90;;;;;;4999474;28;19933;-64
2022/07/29 09:10:43;;;;;;;;;;;18.00;99.90;;;;;;5008972;28;19933;-64
2022/07/29 09:13:10;;;;;;;;;;;18.10;99.90;;;;;;5009281;28;19925;-64
2022/07/29 09:15:38;;;;;;;;;;;18.20;99.90;;;;;;5008343;28;19925;-65
2022/07/29 09:18:05;;;;;;;;;;;18.30;99.90;;;;;;5011781;28;20266;-64
2022/07/29 09:23:19;;;;;;;;;;;18.60;99.90;;;;;;5001834;28;20301;-64
2022/07/29 09:25:51;;;;;;;;;;;18.70;99.90;;;;;;5008295;28;19933;-63
2022/07/29 09:28:18;;;;;;;;;;;18.90;99.90;;;;;;5004164;28;20419;-64
2022/07/29 09:30:51;;;;;;;;;;;19.10;99.90;;;;;;4990092;28;19933;-63
2022/07/29 09:33:20;;;;;;;;;;;19.10;99.90;;;;;;4989328;28;19926;-64
2022/07/29 09:36:04;;;;;;;;;;;19.20;99.90;;;;;;4998126;28;19929;-63
2022/07/29 09:38:33;;;;;;;;;;;19.30;99.90;;;;;;5005751;28;20300;-62
2022/07/29 09:41:02;;;;;;;;;;;19.40;99.90;;;;;;4991687;28;19933;-65
2022/07/29 09:43:33;;;;;;;;;;;19.40;99.90;;;;;;5008901;28;19925;-64
2022/07/29 09:46:13;;;;;;;;;;;19.50;99.90;;;;;;5009101;28;19932;-64
2022/07/29 09:48:41;;;;;;;;;;;19.60;99.90;;;;;;5009014;28;20084;-64
2022/07/29 09:51:18;;;;;;;;;;;19.60;99.90;;;;;;5008316;28;19925;-65
2022/07/29 09:53:54;;;;;;;;;;;19.70;99.90;;;;;;5009069;28;19926;-64
2022/07/29 09:56:38;;;;;;;;;;;19.70;99.90;;;;;;4991789;28;20296;-65
2022/07/29 09:59:06;;;;;;;;;;;19.80;99.90;;;;;;5008831;28;19929;-65
2022/07/29 10:01:34;;;;;;;;;;;19.80;99.90;;;;;;5007367;28;19929;-65
2022/07/29 10:04:01;;;;;;;;;;;19.80;99.90;;;;;;5005508;28;19926;-64
2022/07/29 10:06:29;;;;;;;;;;;19.90;99.90;;;;;;5006003;28;19933;-65
2022/07/29 10:09:17;;;;;;;;;;;20.00;99.90;;;;;;5007330;28;19930;-65
2022/07/29 10:12:04;;;;;;;;;;;20.00;99.90;;;;;;5010205;28;19933;-64
2022/07/29 10:14:33;;;;;;;;;;;20.10;99.90;;;;;;5008331;28;19926;-64
2022/07/29 10:17:01;;;;;;;;;;;20.10;99.90;;;;;;5012915;28;19925;-65
2022/07/29 10:19:30;;;;;;;;;;;20.10;99.90;;;;;;5011344;28;20312;-65
2022/07/29 10:21:58;;;;;;;;;;;20.20;99.90;;;;;;5011572;28;19930;-63
2022/07/29 10:24:27;;;;;;;;;;;20.20;99.90;;;;;;5012142;28;19934;-64
2022/07/29 10:26:59;;;;;;;;;;;20.30;99.90;;;;;;5026897;28;19925;-64
2022/07/29 10:29:28;;;;;;;;;;;20.40;99.90;;;;;;5023483;28;19926;-63
2022/07/29 10:32:08;;;;;;;;;;;20.40;99.90;;;;;;5010082;28;19933;-64
2022/07/29 10:35:02;;;;;;;;;;;20.40;99.90;;;;;;5008221;28;20016;-63
2022/07/29 10:37:39;;;;;;;;;;;20.50;99.90;;;;;;4979237;28;19925;-63
2022/07/29 10:43:36;;;;;;;;;;;20.50;99.90;;;;;;5011905;28;19925;-64
2022/07/29 10:46:04;;;;;;;;;;;20.50;99.90;;;;;;5011551;28;19926;-62
2022/07/29 10:48:34;;;;;;;;;;;20.40;99.90;;;;;;5011811;28;19930;-64
2022/07/29 10:51:04;;;;;;;;;;;20.40;99.90;;;;;;5021865;28;19926;-64
2022/07/29 10:53:46;;;;;;;;;;;20.50;99.90;;;;;;5011935;28;19930;-64
2022/07/29 10:56:27;;;;;;;;;;;20.50;99.90;;;;;;5011893;28;19948;-65
2022/07/29 10:59:34;;;;;;;;;;;20.60;99.90;;;;;;5010650;28;19930;-66
2022/07/29 11:02:23;;;;;;;;;;;20.80;99.90;;;;;;4969881;28;20290;-65
2022/07/29 11:05:14;;;;;;;;;;;20.80;99.90;;;;;;4969264;28;19933;-64
2022/07/29 11:08:16;;;;;;;;;;;21.00;99.90;;;;;;4987922;28;19925;-64
2022/07/29 11:10:48;;;;;;;;;;;21.00;99.90;;;;;;5004423;28;20285;-63
2022/07/29 11:13:34;;;;;;;;;;;21.10;99.90;;;;;;5010401;28;19933;-62
2022/07/29 11:16:07;;;;;;;;;;;21.20;99.90;;;;;;5006028;28;19933;-63
2022/07/29 11:18:57;;;;;;;;;;;21.30;99.90;;;;;;5006010;28;19926;-64
2022/07/29 11:21:36;;;;;;;;;;;21.40;99.90;;;;;;5005981;28;20444;-64
2022/07/29 11:24:25;;;;;;;;;;;21.40;99.90;;;;;;5015148;28;19925;-63
2022/07/29 11:27:12;;;;;;;;;;;21.60;99.90;;;;;;5007803;28;20392;-65
2022/07/29 11:29:55;;;;;;;;;;;21.80;99.90;;;;;;4996223;28;19937;-62
2022/07/29 11:32:23;;;;;;;;;;;21.90;99.30;;;;;;5000833;28;19929;-63
2022/07/29 11:35:12;;;;;;;;;;;22.10;99.60;;;;;;5000649;28;20385;-62
2022/07/29 11:38:18;;;;;;;;;;;22.00;99.20;;;;;;4998198;28;19929;-62
2022/07/29 11:41:06;;;;;;;;;;;22.00;99.40;;;;;;4995327;28;19930;-64
2022/07/29 11:43:47;;;;;;;;;;;22.00;99.70;;;;;;4997010;28;20345;-63
2022/07/29 11:46:37;;;;;;;;;;;21.90;99.10;;;;;;4995057;28;19929;-63
2022/07/29 11:49:06;;;;;;;;;;;21.80;99.40;;;;;;4989052;28;19937;-64
2022/07/29 11:51:36;;;;;;;;;;;21.70;99.50;;;;;;4998803;28;20774;-63
2022/07/29 11:54:16;;;;;;;;;;;21.70;99.50;;;;;;5002006;28;20300;-62
2022/07/29 11:56:53;;;;;;;;;;;21.60;99.80;;;;;;5003218;28;19933;-62
2022/07/29 11:59:21;;;;;;;;;;;21.50;99.90;;;;;;4996370;28;19930;-62
2022/07/29 12:01:59;;;;;;;;;;;21.60;99.90;;;;;;5001427;28;19930;-64
2022/07/29 12:04:51;;;;;;;;;;;21.60;99.90;;;;;;5001201;28;20005;-64
2022/07/29 12:07:25;;;;;;;;;;;21.60;99.60;;;;;;5018067;28;19933;-64
2022/07/29 12:10:02;;;;;;;;;;;21.50;99.90;;;;;;4996012;28;20557;-62
2022/07/29 12:12:29;;;;;;;;;;;21.50;99.90;;;;;;4996548;28;19929;-63
2022/07/29 12:14:57;;;;;;;;;;;21.50;99.90;;;;;;5011560;28;19933;-63
2022/07/29 12:17:30;;;;;;;;;;;21.40;99.90;;;;;;5001055;28;19940;-62
2022/07/29 12:19:59;;;;;;;;;;;21.50;99.80;;;;;;5000626;28;19926;-62
2022/07/29 12:22:28;;;;;;;;;;;21.40;99.80;;;;;;5002575;28;19926;-63
2022/07/29 12:25:00;;;;;;;;;;;21.40;99.50;;;;;;5003321;28;19936;-62
2022/07/29 12:27:57;;;;;;;;;;;21.30;99.50;;;;;;4999012;28;19932;-63
2022/07/29 12:30:34;;;;;;;;;;;21.20;99.70;;;;;;5002241;28;19936;-63
2022/07/29 12:33:09;;;;;;;;;;;21.20;99.90;;;;;;4997422;28;20273;-63
2022/07/29 12:35:38;;;;;;;;;;;21.20;99.90;;;;;;4996954;28;19934;-64
2022/07/29 12:38:05;;;;;;;;;;;21.30;99.90;;;;;;5001249;28;19926;-62
2022/07/29 12:40:33;;;;;;;;;;;21.30;99.70;;;;;;4998537;28;20312;-64
2022/07/29 12:43:21;;;;;;;;;;;21.40;99.80;;;;;;4993365;28;19926;-62
2022/07/29 12:45:49;;;;;;;;;;;21.50;99.90;;;;;;4997270;28;19925;-62
2022/07/29 12:48:18;;;;;;;;;;;21.70;99.80;;;;;;5019811;28;20401;-63
2022/07/29 12:50:59;;;;;;;;;;;21.70;99.60;;;;;;4998090;28;19932;-65
2022/07/29 12:53:27;;;;;;;;;;;21.90;99.40;;;;;;4996806;28;19929;-65
2022/07/29 12:55:56;;;;;;;;;;;21.90;99.30;;;;;;4995660;28;19929;-65
2022/07/29 12:58:31;;;;;;;;;;;22.00;99.30;;;;;;4997626;28;19932;-64
2022/07/29 13:01:02;;;;;;;;;;;22.10;98.90;;;;;;4998478;28;19925;-66
2022/07/29 13:03:49;;;;;;;;;;;22.20;98.10;;;;;;5013324;28;19926;-64
2022/07/29 13:06:43;;;;;;;;;;;22.20;98.40;;;;;;4992553;28;19936;-64
2022/07/29 13:09:19;;;;;;;;;;;22.20;98.30;;;;;;4991748;28;20258;-63
2022/07/29 13:11:49;;;;;;;;;;;22.30;98.00;;;;;;5002825;28;19933;-63
2022/07/29 13:14:31;;;;;;;;;;;22.30;97.90;;;;;;5011990;28;19925;-63
2022/07/29 13:17:02;;;;;;;;;;;22.30;98.10;;;;;;4998746;28;19937;-64
2022/07/29 13:19:33;;;;;;;;;;;22.30;98.20;;;;;;4998613;28;19933;-64
2022/07/29 13:22:01;;;;;;;;;;;22.40;98.30;;;;;;4997183;28;19925;-65
2022/07/29 13:24:28;;;;;;;;;;;22.50;98.30;;;;;;4996537;28;20274;-65
2022/07/29 13:26:56;;;;;;;;;;;22.60;98.50;;;;;;4997873;28;19929;-62
2022/07/29 13:29:26;;;;;;;;;;;22.80;97.80;;;;;;4995995;28;19929;-64
2022/07/29 13:31:57;;;;;;;;;;;22.90;97.40;;;;;;4993069;28;19945;-65
2022/07/29 13:34:26;;;;;;;;;;;23.10;96.30;;;;;;5002119;28;19926;-63
2022/07/29 13:36:53;;;;;;;;;;;23.20;96.00;;;;;;4996939;28;19953;-63
2022/07/29 13:39:21;;;;;;;;;;;23.20;96.20;;;;;;5001020;28;19926;-63
2022/07/29 13:41:49;;;;;;;;;;;23.20;96.10;;;;;;5002752;28;19993;-64
2022/07/29 13:44:17;;;;;;;;;;;23.20;96.30;;;;;;5002387;28;19925;-63
2022/07/29 13:46:44;;;;;;;;;;;23.10;95.90;;;;;;4996287;28;19925;-63
2022/07/29 13:49:12;;;;;;;;;;;23.10;96.10;;;;;;4994380;28;19934;-64
2022/07/29 13:51:40;;;;;;;;;;;23.10;96.30;;;;;;4997219;28;19926;-64
2022/07/29 13:54:08;;;;;;;;;;;23.00;96.10;;;;;;5001796;28;19925;-64
2022/07/29 13:56:35;;;;;;;;;;;23.10;96.40;;;;;;4998145;28;19925;-67
2022/07/29 13:59:03;;;;;;;;;;;23.20;96.60;;;;;;5003525;28;19933;-63
2022/07/29 14:01:30;;;;;;;;;;;23.30;96.80;;;;;;4999461;28;19934;-63
2022/07/29 14:03:58;;;;;;;;;;;23.30;96.70;;;;;;5002747;28;19929;-64
2022/07/29 14:06:25;;;;;;;;;;;23.40;96.70;;;;;;5004065;28;19929;-65
2022/07/29 14:08:55;;;;;;;;;;;23.40;96.70;;;;;;4993494;28;20439;-64
2022/07/29 14:11:23;;;;;;;;;;;23.50;96.70;;;;;;4999085;28;19929;-61
2022/07/29 14:13:50;;;;;;;;;;;23.50;95.90;;;;;;5000318;28;20743;-62
2022/07/29 14:16:18;;;;;;;;;;;23.50;95.50;;;;;;4999552;28;19934;-61
2022/07/29 14:18:46;;;;;;;;;;;23.50;95.90;;;;;;5000620;28;19937;-61
2022/07/29 14:21:13;;;;;;;;;;;23.50;95.90;;;;;;4997626;28;19925;-62
2022/07/29 14:23:43;;;;;;;;;;;23.50;95.70;;;;;;4998939;28;19929;-62
2022/07/29 14:26:11;;;;;;;;;;;23.40;95.70;;;;;;5003323;28;19930;-62
2022/07/29 14:28:48;;;;;;;;;;;23.40;95.70;;;;;;4997377;28;19933;-63
2022/07/29 14:31:17;;;;;;;;;;;23.40;95.70;;;;;;5003301;28;19929;-62
2022/07/29 14:33:45;;;;;;;;;;;23.30;95.90;;;;;;5002502;28;20284;-63
2022/07/29 14:36:15;;;;;;;;;;;23.20;95.90;;;;;;5010690;28;20388;-66
2022/07/29 14:38:44;;;;;;;;;;;23.20;95.70;;;;;;5001663;28;19926;-64
2022/07/29 14:41:13;;;;;;;;;;;23.10;95.60;;;;;;4994125;28;20300;-63
2022/07/29 14:43:41;;;;;;;;;;;23.00;95.60;;;;;;4994462;28;19930;-64
2022/07/29 14:46:09;;;;;;;;;;;23.00;95.70;;;;;;4994959;28;19930;-64